Time;durP1;ratioP1;P1;durP2;ratioP2;P2;SDS_P1;SDS_P2;PMS_P1;PMS_P2;Temp;Humidity;BMP_temperature;BMP_pressure;BME280_temperature;BME280_humidity;BME280_pressure;Samples;Min_cycle;Max_cycle;Signal;HPM_P1;HPM_P2
2022/05/20 00:01:44;;;;;;;;;;;12.50;97.30;;;;;;5054686;28;20401;-76
2022/05/20 00:04:10;;;;;;;;;;;12.50;97.50;;;;;;5054354;28;20418;-76
2022/05/20 00:06:36;;;;;;;;;;;12.50;97.70;;;;;;5054506;28;19912;-77
2022/05/20 00:09:01;;;;;;;;;;;12.50;98.00;;;;;;5053182;28;19912;-76
2022/05/20 00:11:27;;;;;;;;;;;12.50;98.90;;;;;;5054206;28;19905;-76
2022/05/20 00:13:52;;;;;;;;;;;12.50;99.20;;;;;;5054280;28;19959;-77
2022/05/20 00:16:21;;;;;;;;;;;12.50;99.30;;;;;;5054135;28;19962;-76
2022/05/20 00:18:47;;;;;;;;;;;12.40;99.70;;;;;;5054026;28;19931;-76
2022/05/20 00:21:13;;;;;;;;;;;12.40;99.90;;;;;;5052918;28;19904;-76
2022/05/20 00:23:38;;;;;;;;;;;12.40;99.90;;;;;;5054113;28;19916;-76
2022/05/20 00:26:04;;;;;;;;;;;12.40;99.90;;;;;;5053947;28;19944;-76
2022/05/20 00:28:29;;;;;;;;;;;12.40;99.90;;;;;;5054023;28;19944;-76
2022/05/20 00:31:00;;;;;;;;;;;12.40;99.90;;;;;;5054097;28;19908;-77
2022/05/20 00:33:27;;;;;;;;;;;12.40;99.90;;;;;;5053795;28;19905;-76
2022/05/20 00:35:52;;;;;;;;;;;12.40;99.90;;;;;;5053905;28;20276;-76
2022/05/20 00:38:18;;;;;;;;;;;12.40;99.90;;;;;;5053554;28;19978;-76
2022/05/20 00:40:44;;;;;;;;;;;12.40;99.90;;;;;;5053805;28;19905;-77
2022/05/20 00:43:12;;;;;;;;;;;12.40;99.90;;;;;;5053689;28;19912;-76
2022/05/20 00:45:38;;;;;;;;;;;12.30;99.90;;;;;;5052030;28;20305;-76
2022/05/20 00:48:04;;;;;;;;;;;12.40;99.90;;;;;;5053919;28;19911;-78
2022/05/20 00:50:30;;;;;;;;;;;12.40;99.90;;;;;;5052344;28;19905;-76
2022/05/20 00:52:56;;;;;;;;;;;12.30;99.90;;;;;;5053626;28;19913;-77
2022/05/20 00:55:22;;;;;;;;;;;12.30;99.90;;;;;;5053753;28;19905;-76
2022/05/20 00:57:51;;;;;;;;;;;12.30;99.90;;;;;;5053342;28;20371;-76
2022/05/20 01:00:19;;;;;;;;;;;12.30;99.90;;;;;;5052204;28;20322;-76
2022/05/20 01:02:46;;;;;;;;;;;12.30;99.90;;;;;;5053384;28;19966;-76
2022/05/20 01:05:17;;;;;;;;;;;12.20;99.90;;;;;;5052053;28;20267;-76
2022/05/20 01:07:43;;;;;;;;;;;12.20;99.90;;;;;;5053258;28;19905;-75
2022/05/20 01:10:09;;;;;;;;;;;12.10;99.90;;;;;;5053132;28;19988;-76
2022/05/20 01:12:34;;;;;;;;;;;12.20;99.90;;;;;;5053315;28;19936;-76
2022/05/20 01:15:00;;;;;;;;;;;12.20;99.90;;;;;;5051878;28;19905;-77
2022/05/20 01:17:27;;;;;;;;;;;12.20;99.90;;;;;;5053053;28;19905;-76
2022/05/20 01:19:53;;;;;;;;;;;12.20;99.90;;;;;;5052865;28;19962;-77
2022/05/20 01:22:38;;;;;;;;;;;12.20;99.90;;;;;;5053059;28;19909;-76
2022/05/20 01:25:04;;;;;;;;;;;12.20;99.90;;;;;;5052955;28;19917;-76
2022/05/20 01:27:29;;;;;;;;;;;12.20;99.90;;;;;;5052909;28;19908;-76
2022/05/20 01:29:55;;;;;;;;;;;12.20;99.90;;;;;;5052721;28;19904;-76
2022/05/20 01:32:20;;;;;;;;;;;12.20;99.90;;;;;;5052810;28;20398;-76
2022/05/20 01:34:46;;;;;;;;;;;12.20;99.90;;;;;;5052772;28;19905;-76
2022/05/20 01:37:11;;;;;;;;;;;12.20;99.90;;;;;;5052442;28;19909;-76
2022/05/20 01:39:37;;;;;;;;;;;12.20;99.90;;;;;;5052775;28;19909;-76
2022/05/20 01:42:29;;;;;;;;;;;12.10;99.90;;;;;;5052728;28;19912;-76
2022/05/20 01:45:06;;;;;;;;;;;12.10;99.90;;;;;;5029030;28;20276;-77
2022/05/20 01:47:41;;;;;;;;;;;12.10;99.90;;;;;;5052425;28;19905;-77
2022/05/20 01:50:16;;;;;;;;;;;12.10;99.90;;;;;;5052626;28;19912;-76
2022/05/20 01:52:54;;;;;;;;;;;12.00;99.90;;;;;;5052451;28;19927;-76
2022/05/20 01:55:23;;;;;;;;;;;12.10;99.90;;;;;;5051097;28;19912;-76
2022/05/20 01:57:51;;;;;;;;;;;12.10;99.90;;;;;;5050463;28;19909;-76
2022/05/20 02:00:19;;;;;;;;;;;12.10;99.90;;;;;;5051108;28;19909;-78
2022/05/20 02:02:50;;;;;;;;;;;12.00;99.90;;;;;;5051161;28;19931;-76
2022/05/20 02:05:20;;;;;;;;;;;12.00;99.90;;;;;;5052208;28;19920;-76
2022/05/20 02:07:47;;;;;;;;;;;12.10;99.90;;;;;;5052229;28;20426;-76
2022/05/20 02:10:18;;;;;;;;;;;12.10;99.90;;;;;;5050872;28;19905;-76
2022/05/20 02:12:46;;;;;;;;;;;12.10;99.90;;;;;;5052110;28;20268;-77
2022/05/20 02:15:16;;;;;;;;;;;12.10;99.90;;;;;;5051986;28;19904;-77
2022/05/20 02:17:44;;;;;;;;;;;12.10;99.90;;;;;;5052154;28;19904;-76
2022/05/20 02:20:13;;;;;;;;;;;12.10;99.90;;;;;;5052255;28;19909;-77
2022/05/20 02:22:41;;;;;;;;;;;12.10;99.90;;;;;;5052286;28;19905;-76
2022/05/20 02:25:10;;;;;;;;;;;12.10;99.90;;;;;;5050675;28;19943;-76
2022/05/20 02:27:38;;;;;;;;;;;12.10;99.90;;;;;;5052164;28;19948;-77
2022/05/20 02:30:05;;;;;;;;;;;12.20;99.90;;;;;;5052160;28;19984;-77
2022/05/20 02:32:34;;;;;;;;;;;12.20;99.90;;;;;;5052084;28;19909;-76
2022/05/20 02:35:00;;;;;;;;;;;12.20;99.90;;;;;;5052091;28;19947;-77
2022/05/20 02:37:27;;;;;;;;;;;12.10;99.90;;;;;;5051830;28;20383;-76
2022/05/20 02:39:53;;;;;;;;;;;12.10;99.90;;;;;;5052121;28;20344;-76
2022/05/20 02:42:19;;;;;;;;;;;12.00;99.90;;;;;;5050769;28;19911;-77
2022/05/20 02:44:44;;;;;;;;;;;12.10;99.90;;;;;;5051784;28;19912;-77
2022/05/20 02:47:10;;;;;;;;;;;12.10;99.90;;;;;;5051948;28;20359;-77
2022/05/20 02:49:36;;;;;;;;;;;12.20;99.90;;;;;;5051952;28;19936;-77
2022/05/20 02:52:02;;;;;;;;;;;12.20;99.90;;;;;;5051887;28;19908;-76
2022/05/20 02:54:27;;;;;;;;;;;12.20;99.90;;;;;;5051998;28;19911;-76
2022/05/20 02:56:53;;;;;;;;;;;12.30;99.90;;;;;;5052052;28;19904;-77
2022/05/20 03:04:47;;;;;;;;;;;12.40;99.90;;;;;;5051729;28;19924;-76
2022/05/20 03:07:13;;;;;;;;;;;12.30;99.90;;;;;;5051702;28;19908;-77
2022/05/20 03:09:39;;;;;;;;;;;12.40;99.90;;;;;;5053398;28;19928;-76
2022/05/20 03:12:05;;;;;;;;;;;12.40;99.90;;;;;;5055767;28;19904;-76
2022/05/20 03:14:31;;;;;;;;;;;12.40;99.90;;;;;;5055489;28;19997;-76
2022/05/20 03:17:00;;;;;;;;;;;12.50;99.90;;;;;;5055236;28;20340;-77
2022/05/20 03:19:30;;;;;;;;;;;12.50;99.90;;;;;;5055286;28;19905;-77
2022/05/20 03:21:56;;;;;;;;;;;12.50;99.90;;;;;;5055400;28;19912;-77
2022/05/20 03:24:21;;;;;;;;;;;12.50;99.90;;;;;;5055193;28;19913;-77
2022/05/20 03:26:47;;;;;;;;;;;12.50;99.90;;;;;;5053935;28;19904;-76
2022/05/20 03:29:13;;;;;;;;;;;12.60;99.90;;;;;;5055404;28;19940;-76
2022/05/20 03:31:39;;;;;;;;;;;12.70;99.90;;;;;;5053835;28;19909;-77
2022/05/20 03:34:05;;;;;;;;;;;12.60;99.90;;;;;;5055070;28;19991;-77
2022/05/20 03:36:35;;;;;;;;;;;12.60;99.90;;;;;;5054659;28;19909;-76
2022/05/20 03:39:01;;;;;;;;;;;12.70;99.90;;;;;;5055100;28;19960;-76
2022/05/20 03:41:26;;;;;;;;;;;12.80;99.90;;;;;;5053616;28;19940;-76
2022/05/20 03:43:52;;;;;;;;;;;12.80;99.90;;;;;;5054875;28;19913;-77
2022/05/20 03:46:17;;;;;;;;;;;12.80;99.90;;;;;;5054926;28;19905;-77
2022/05/20 03:48:43;;;;;;;;;;;12.70;99.90;;;;;;5053404;28;19948;-77
2022/05/20 03:51:09;;;;;;;;;;;12.80;99.90;;;;;;5054874;28;19919;-77
2022/05/20 03:53:35;;;;;;;;;;;12.80;99.90;;;;;;5053186;28;19916;-77
2022/05/20 03:56:00;;;;;;;;;;;12.90;99.90;;;;;;5054747;28;19905;-77
2022/05/20 03:58:26;;;;;;;;;;;12.90;99.90;;;;;;5053290;28;19912;-77
2022/05/20 04:03:40;;;;;;;;;;;13.00;99.90;;;;;;5054327;28;19919;-77
2022/05/20 04:06:05;;;;;;;;;;;13.10;99.90;;;;;;5053211;28;19908;-77
2022/05/20 04:08:31;;;;;;;;;;;13.00;99.90;;;;;;5054414;28;19912;-76
2022/05/20 04:10:56;;;;;;;;;;;13.10;99.90;;;;;;5053211;28;20268;-77
2022/05/20 04:13:22;;;;;;;;;;;13.20;99.90;;;;;;5054429;28;19905;-77
2022/05/20 04:15:48;;;;;;;;;;;13.30;99.90;;;;;;5054235;28;20244;-76
2022/05/20 04:18:14;;;;;;;;;;;13.30;99.90;;;;;;5054222;28;19920;-77
2022/05/20 04:20:39;;;;;;;;;;;13.40;99.90;;;;;;5053594;28;19905;-77
2022/05/20 04:23:05;;;;;;;;;;;13.50;99.90;;;;;;5054095;28;19912;-77
2022/05/20 04:25:30;;;;;;;;;;;13.60;99.90;;;;;;5052991;28;20294;-77
2022/05/20 04:27:56;;;;;;;;;;;13.70;99.90;;;;;;5053864;28;19920;-77
2022/05/20 04:30:21;;;;;;;;;;;13.80;99.90;;;;;;5054097;28;20359;-77
2022/05/20 04:32:47;;;;;;;;;;;13.90;99.90;;;;;;5054046;28;20340;-77
2022/05/20 04:35:12;;;;;;;;;;;13.90;99.90;;;;;;5053849;28;19909;-77
2022/05/20 04:37:38;;;;;;;;;;;14.10;99.90;;;;;;5053512;28;19916;-77
2022/05/20 04:40:04;;;;;;;;;;;14.20;99.90;;;;;;5052562;28;19905;-77
2022/05/20 04:48:01;;;;;;;;;;;14.40;99.90;;;;;;5056860;28;20302;-77
2022/05/20 04:50:27;;;;;;;;;;;14.50;99.90;;;;;;5055587;28;19908;-77
2022/05/20 04:52:53;;;;;;;;;;;14.70;99.90;;;;;;5053655;28;20368;-77
2022/05/20 04:55:18;;;;;;;;;;;14.70;99.90;;;;;;5053558;28;19905;-76
2022/05/20 04:57:48;;;;;;;;;;;14.80;99.90;;;;;;5053314;28;19999;-77
2022/05/20 05:00:18;;;;;;;;;;;14.80;99.90;;;;;;5053378;28;19905;-77
2022/05/20 05:02:44;;;;;;;;;;;14.80;99.90;;;;;;5053349;28;19912;-77
2022/05/20 05:05:11;;;;;;;;;;;14.90;98.50;;;;;;5053319;28;20295;-76
2022/05/20 05:07:41;;;;;;;;;;;15.00;97.70;;;;;;5051905;28;20347;-77
2022/05/20 05:10:08;;;;;;;;;;;15.60;99.90;;;;;;5053519;28;20004;-83
2022/05/20 05:12:33;;;;;;;;;;;16.20;97.70;;;;;;5054169;28;19970;-78
2022/05/20 05:14:59;;;;;;;;;;;16.80;96.30;;;;;;5058843;28;19964;-80
2022/05/20 05:20:12;;;;;;;;;;;17.70;94.00;;;;;;5053655;28;20054;-77
2022/05/20 05:22:37;;;;;;;;;;;17.90;92.90;;;;;;5053202;28;19904;-77
2022/05/20 05:25:03;;;;;;;;;;;17.80;93.10;;;;;;5053218;28;19939;-78
2022/05/20 05:27:28;;;;;;;;;;;17.80;93.40;;;;;;5053094;28;20540;-77
2022/05/20 05:29:54;;;;;;;;;;;17.90;93.60;;;;;;5053209;28;19909;-77
2022/05/20 05:32:20;;;;;;;;;;;17.70;93.60;;;;;;5052539;28;20030;-77
2022/05/20 05:34:45;;;;;;;;;;;17.60;93.50;;;;;;5051854;28;20319;-78
2022/05/20 05:37:11;;;;;;;;;;;17.70;92.70;;;;;;5052767;28;19956;-79
2022/05/20 05:39:37;;;;;;;;;;;17.90;91.80;;;;;;5052999;28;19905;-77
2022/05/20 05:42:02;;;;;;;;;;;18.00;91.00;;;;;;5052905;28;20398;-77
2022/05/20 05:44:28;;;;;;;;;;;18.20;90.80;;;;;;5053139;28;20352;-78
2022/05/20 05:46:53;;;;;;;;;;;18.40;90.20;;;;;;5052757;28;19904;-76
2022/05/20 05:49:19;;;;;;;;;;;18.60;90.00;;;;;;5052829;28;19958;-77
2022/05/20 05:51:44;;;;;;;;;;;18.70;88.50;;;;;;5052798;28;20007;-77
2022/05/20 05:54:10;;;;;;;;;;;18.70;89.10;;;;;;5052782;28;19905;-78
2022/05/20 05:56:36;;;;;;;;;;;18.60;90.10;;;;;;5052781;28;19909;-78
2022/05/20 05:59:02;;;;;;;;;;;18.60;90.20;;;;;;5052782;28;19908;-78
2022/05/20 06:01:28;;;;;;;;;;;18.60;90.00;;;;;;5052908;28;19912;-77
2022/05/20 06:03:53;;;;;;;;;;;18.60;90.50;;;;;;5052603;28;20348;-78
2022/05/20 06:06:19;;;;;;;;;;;18.50;90.70;;;;;;5052417;28;19904;-77
2022/05/20 06:08:44;;;;;;;;;;;18.50;90.70;;;;;;5052405;28;19954;-77
2022/05/20 06:11:10;;;;;;;;;;;18.50;91.70;;;;;;5051292;28;19905;-76
2022/05/20 06:13:36;;;;;;;;;;;18.50;92.00;;;;;;5052734;28;20006;-77
2022/05/20 06:16:01;;;;;;;;;;;18.60;92.30;;;;;;5052330;28;19909;-78
2022/05/20 06:18:27;;;;;;;;;;;18.60;91.70;;;;;;5052222;28;19909;-78
2022/05/20 06:20:53;;;;;;;;;;;18.70;92.30;;;;;;5052493;28;19955;-77
2022/05/20 06:23:18;;;;;;;;;;;19.00;92.50;;;;;;5052348;28;19927;-77
2022/05/20 06:25:44;;;;;;;;;;;19.40;93.30;;;;;;5052684;28;19904;-77
2022/05/20 06:28:11;;;;;;;;;;;19.70;91.30;;;;;;5052447;28;20371;-77
2022/05/20 06:30:38;;;;;;;;;;;20.00;91.50;;;;;;5051452;28;19905;-77
2022/05/20 06:33:04;;;;;;;;;;;20.30;90.60;;;;;;5052244;28;19913;-77
2022/05/20 06:40:58;;;;;;;;;;;21.00;90.70;;;;;;5052441;28;19961;-76
2022/05/20 06:43:25;;;;;;;;;;;21.00;90.10;;;;;;5052026;28;19920;-77
2022/05/20 06:45:52;;;;;;;;;;;21.20;90.70;;;;;;5055751;28;19948;-77
2022/05/20 06:48:17;;;;;;;;;;;21.20;90.90;;;;;;5054514;28;19948;-78
2022/05/20 06:50:43;;;;;;;;;;;21.20;90.40;;;;;;5055959;28;19943;-77
2022/05/20 06:53:09;;;;;;;;;;;21.30;90.50;;;;;;5055141;28;19909;-78
2022/05/20 06:55:35;;;;;;;;;;;21.30;90.00;;;;;;5055589;28;19905;-77
2022/05/20 06:58:01;;;;;;;;;;;21.40;89.90;;;;;;5054613;28;19928;-77
2022/05/20 07:00:26;;;;;;;;;;;21.40;89.20;;;;;;5055948;28;19904;-77
2022/05/20 07:02:52;;;;;;;;;;;21.40;90.30;;;;;;5055651;28;19973;-77
2022/05/20 07:05:18;;;;;;;;;;;21.40;90.30;;;;;;5054681;28;19951;-77
2022/05/20 07:07:43;;;;;;;;;;;21.40;90.10;;;;;;5053720;28;20256;-77
2022/05/20 07:10:10;;;;;;;;;;;21.30;90.40;;;;;;5054945;28;19909;-77
2022/05/20 07:12:35;;;;;;;;;;;21.20;90.60;;;;;;5055647;28;19909;-77
2022/05/20 07:15:01;;;;;;;;;;;21.20;91.20;;;;;;5055382;28;19951;-78
2022/05/20 07:17:27;;;;;;;;;;;21.10;91.70;;;;;;5055338;28;20240;-77
2022/05/20 07:19:53;;;;;;;;;;;21.10;91.70;;;;;;5055358;28;19905;-76
2022/05/20 07:22:18;;;;;;;;;;;21.00;91.90;;;;;;5053539;28;20236;-75
2022/05/20 07:24:44;;;;;;;;;;;21.00;91.80;;;;;;5055369;28;19966;-76
2022/05/20 07:27:10;;;;;;;;;;;21.00;92.30;;;;;;5054888;28;19909;-75
2022/05/20 07:29:35;;;;;;;;;;;21.00;91.60;;;;;;5055237;28;20252;-75
2022/05/20 07:32:01;;;;;;;;;;;21.10;91.70;;;;;;5055138;28;19928;-77
2022/05/20 07:34:27;;;;;;;;;;;21.10;92.00;;;;;;5055205;28;20353;-77
2022/05/20 07:36:53;;;;;;;;;;;21.10;92.40;;;;;;5054496;28;19959;-78
2022/05/20 07:39:19;;;;;;;;;;;21.10;93.00;;;;;;5055190;28;19940;-77
2022/05/20 07:41:45;;;;;;;;;;;21.10;92.80;;;;;;5055080;28;19905;-77
2022/05/20 07:44:10;;;;;;;;;;;21.00;93.00;;;;;;5055185;28;19920;-77
2022/05/20 07:46:35;;;;;;;;;;;21.00;93.30;;;;;;5054971;28;19908;-78
2022/05/20 07:49:01;;;;;;;;;;;21.00;93.10;;;;;;5054238;28;20006;-77
2022/05/20 07:51:28;;;;;;;;;;;21.00;94.50;;;;;;5054918;28;20340;-77
2022/05/20 07:54:00;;;;;;;;;;;21.00;95.30;;;;;;5053657;28;19999;-77
2022/05/20 07:56:30;;;;;;;;;;;21.00;94.80;;;;;;5053957;28;19925;-77
2022/05/20 07:58:58;;;;;;;;;;;21.00;95.10;;;;;;5054826;28;19911;-78
2022/05/20 08:01:28;;;;;;;;;;;21.00;95.60;;;;;;5054805;28;19905;-77
2022/05/20 08:06:44;;;;;;;;;;;21.10;95.40;;;;;;5054460;28;19951;-77
2022/05/20 08:09:10;;;;;;;;;;;21.20;95.40;;;;;;5053326;28;19952;-78
2022/05/20 08:11:35;;;;;;;;;;;21.30;93.60;;;;;;5054405;28;19923;-77
2022/05/20 08:14:01;;;;;;;;;;;21.40;93.00;;;;;;5053222;28;19911;-77
2022/05/20 08:16:27;;;;;;;;;;;21.60;93.20;;;;;;5054319;28;19904;-77
2022/05/20 08:18:53;;;;;;;;;;;21.80;92.30;;;;;;5054144;28;20418;-77
2022/05/20 08:21:19;;;;;;;;;;;22.00;92.30;;;;;;5054320;28;19909;-77
2022/05/20 08:23:45;;;;;;;;;;;22.00;91.60;;;;;;5054149;28;20023;-77
2022/05/20 08:26:12;;;;;;;;;;;22.10;91.60;;;;;;5054146;28;19904;-77
2022/05/20 08:28:37;;;;;;;;;;;22.20;92.10;;;;;;5054164;28;20368;-78
2022/05/20 08:31:03;;;;;;;;;;;22.30;91.40;;;;;;5054377;28;19931;-77
2022/05/20 08:33:28;;;;;;;;;;;22.40;90.30;;;;;;5054076;28;19913;-78
2022/05/20 08:35:54;;;;;;;;;;;22.40;90.90;;;;;;5054228;28;19934;-77
2022/05/20 08:38:21;;;;;;;;;;;22.60;91.00;;;;;;5053917;28;19920;-77
2022/05/20 08:40:47;;;;;;;;;;;22.80;90.50;;;;;;5054120;28;19909;-77
2022/05/20 08:43:13;;;;;;;;;;;22.90;88.30;;;;;;5053869;28;20340;-76
2022/05/20 08:45:38;;;;;;;;;;;23.10;88.00;;;;;;5053657;28;20003;-75
2022/05/20 08:48:05;;;;;;;;;;;23.40;90.20;;;;;;5053776;28;20410;-78
2022/05/20 08:50:40;;;;;;;;;;;23.70;86.10;;;;;;5053746;28;19915;-77
2022/05/20 08:53:12;;;;;;;;;;;24.00;85.10;;;;;;5053647;28;19905;-76
2022/05/20 08:55:37;;;;;;;;;;;24.40;85.40;;;;;;5053577;28;20271;-77
2022/05/20 08:58:03;;;;;;;;;;;24.70;83.20;;;;;;5053512;28;19911;-76
2022/05/20 09:00:29;;;;;;;;;;;24.90;81.60;;;;;;5053640;28;19912;-76
2022/05/20 09:02:55;;;;;;;;;;;25.00;78.70;;;;;;5053391;28;19927;-76
2022/05/20 09:05:21;;;;;;;;;;;25.00;77.40;;;;;;5053456;28;19913;-76
2022/05/20 09:07:54;;;;;;;;;;;25.00;79.30;;;;;;5053449;28;19911;-78
2022/05/20 09:10:32;;;;;;;;;;;25.00;79.20;;;;;;5053360;28;20569;-76
2022/05/20 09:13:05;;;;;;;;;;;24.90;80.00;;;;;;5053037;28;19904;-78
2022/05/20 09:15:43;;;;;;;;;;;24.90;77.90;;;;;;5053178;28;19909;-78
2022/05/20 09:18:11;;;;;;;;;;;25.00;78.80;;;;;;5052970;28;19958;-76
2022/05/20 09:20:47;;;;;;;;;;;25.10;79.00;;;;;;5053311;28;20363;-76
2022/05/20 09:23:15;;;;;;;;;;;25.20;78.20;;;;;;5051928;28;19970;-78
2022/05/20 09:25:55;;;;;;;;;;;25.30;77.00;;;;;;5052572;28;19912;-77
2022/05/20 09:28:30;;;;;;;;;;;25.30;77.40;;;;;;5053250;28;19911;-78
2022/05/20 09:31:12;;;;;;;;;;;25.20;74.60;;;;;;5051270;28;19911;-77
2022/05/20 09:33:38;;;;;;;;;;;25.20;74.20;;;;;;5052749;28;19915;-77
2022/05/20 09:36:04;;;;;;;;;;;25.20;76.40;;;;;;5051337;28;19924;-77
2022/05/20 09:38:34;;;;;;;;;;;25.30;76.50;;;;;;5052560;28;19917;-77
2022/05/20 09:41:08;;;;;;;;;;;25.50;75.20;;;;;;5052773;28;19908;-77
2022/05/20 09:43:36;;;;;;;;;;;25.70;76.20;;;;;;5063045;28;20402;-77
2022/05/20 09:46:03;;;;;;;;;;;26.00;73.20;;;;;;5072702;28;19915;-77
2022/05/20 09:48:48;;;;;;;;;;;26.00;74.40;;;;;;5072493;28;20003;-77
2022/05/20 09:51:15;;;;;;;;;;;26.10;73.00;;;;;;5072696;28;19904;-77
2022/05/20 09:53:42;;;;;;;;;;;26.20;71.20;;;;;;5072612;28;19904;-77
2022/05/20 09:56:18;;;;;;;;;;;26.20;71.80;;;;;;5072676;28;19908;-77
2022/05/20 09:58:58;;;;;;;;;;;26.20;71.80;;;;;;5072434;28;19908;-78
2022/05/20 10:01:23;;;;;;;;;;;26.40;71.50;;;;;;5072638;28;19915;-77
2022/05/20 10:03:54;;;;;;;;;;;26.40;69.30;;;;;;5072404;28;19913;-78
2022/05/20 10:06:34;;;;;;;;;;;26.50;68.80;;;;;;5071034;28;20370;-78
2022/05/20 10:09:02;;;;;;;;;;;26.60;69.20;;;;;;5072123;28;19904;-78
2022/05/20 10:11:46;;;;;;;;;;;26.70;70.10;;;;;;5072425;28;20310;-78
2022/05/20 10:14:15;;;;;;;;;;;26.90;70.90;;;;;;5072113;28;19910;-78
2022/05/20 10:16:44;;;;;;;;;;;27.00;69.20;;;;;;5072138;28;20002;-78
2022/05/20 10:19:26;;;;;;;;;;;27.10;68.40;;;;;;5070372;28;19908;-77
2022/05/20 10:21:58;;;;;;;;;;;27.20;68.50;;;;;;5072259;28;19991;-78
2022/05/20 10:24:23;;;;;;;;;;;27.20;67.50;;;;;;5070854;28;20355;-78
2022/05/20 10:27:07;;;;;;;;;;;27.20;66.40;;;;;;5072255;28;19955;-78
2022/05/20 10:32:53;;;;;;;;;;;27.30;67.00;;;;;;5071973;28;19949;-78
2022/05/20 10:35:21;;;;;;;;;;;27.40;66.70;;;;;;5070276;28;19981;-78
2022/05/20 10:37:55;;;;;;;;;;;27.50;67.30;;;;;;5071818;28;19923;-78
2022/05/20 10:40:34;;;;;;;;;;;27.60;68.00;;;;;;5070857;28;19914;-78
2022/05/20 10:43:21;;;;;;;;;;;27.60;67.30;;;;;;5071760;28;20378;-78
2022/05/20 10:48:54;;;;;;;;;;;27.80;66.70;;;;;;5072083;28;20022;-78
2022/05/20 10:51:22;;;;;;;;;;;27.80;68.10;;;;;;5071852;28;19904;-78
2022/05/20 10:53:54;;;;;;;;;;;27.90;67.40;;;;;;5071940;28;19904;-78
2022/05/20 10:56:39;;;;;;;;;;;27.90;66.50;;;;;;5070547;28;19991;-78
2022/05/20 10:59:10;;;;;;;;;;;28.10;67.10;;;;;;5071506;28;20351;-77
2022/05/20 11:01:58;;;;;;;;;;;28.20;67.30;;;;;;5070747;28;20267;-78
2022/05/20 11:04:48;;;;;;;;;;;28.20;65.50;;;;;;5070647;28;20007;-78
2022/05/20 11:07:23;;;;;;;;;;;28.40;66.20;;;;;;5070909;28;20348;-78
2022/05/20 11:10:00;;;;;;;;;;;28.40;65.00;;;;;;5071153;28;20390;-78
2022/05/20 11:12:41;;;;;;;;;;;28.50;65.80;;;;;;5073398;28;19936;-78
2022/05/20 11:15:06;;;;;;;;;;;28.60;65.40;;;;;;5072838;28;19912;-78
2022/05/20 11:17:38;;;;;;;;;;;28.70;65.50;;;;;;5071702;28;19908;-78
2022/05/20 11:20:07;;;;;;;;;;;28.80;65.40;;;;;;5070322;28;20233;-77
2022/05/20 11:22:32;;;;;;;;;;;28.90;64.80;;;;;;5070447;28;19930;-78
2022/05/20 11:25:07;;;;;;;;;;;29.00;65.30;;;;;;5070282;28;20352;-77
2022/05/20 11:27:33;;;;;;;;;;;29.00;64.20;;;;;;5070249;28;19931;-78
2022/05/20 11:30:07;;;;;;;;;;;29.10;65.10;;;;;;5071591;28;20355;-78
2022/05/20 11:32:35;;;;;;;;;;;29.10;64.90;;;;;;5074088;28;20000;-79
2022/05/20 11:35:01;;;;;;;;;;;29.20;64.30;;;;;;5073746;28;19908;-78
2022/05/20 11:37:33;;;;;;;;;;;29.10;64.00;;;;;;5073675;28;19920;-78
2022/05/20 11:40:12;;;;;;;;;;;29.10;64.40;;;;;;5075001;28;19908;-78
2022/05/20 11:42:38;;;;;;;;;;;29.10;62.80;;;;;;5073727;28;19915;-77
2022/05/20 11:45:14;;;;;;;;;;;29.20;63.10;;;;;;5075078;28;20010;-78
2022/05/20 11:47:49;;;;;;;;;;;29.30;64.00;;;;;;5075094;28;20426;-78
2022/05/20 11:50:17;;;;;;;;;;;29.30;63.60;;;;;;5074953;28;19978;-78
2022/05/20 11:52:55;;;;;;;;;;;29.40;64.00;;;;;;5074944;28;19911;-77
2022/05/20 11:55:21;;;;;;;;;;;29.50;61.10;;;;;;5074933;28;19905;-78
2022/05/20 11:57:57;;;;;;;;;;;29.60;62.80;;;;;;5074935;28;19995;-77
2022/05/20 12:00:23;;;;;;;;;;;29.70;62.50;;;;;;5074868;28;19908;-78
2022/05/20 12:02:51;;;;;;;;;;;29.80;61.80;;;;;;5074774;28;19915;-77
2022/05/20 12:05:19;;;;;;;;;;;29.80;61.60;;;;;;5073502;28;19938;-78
2022/05/20 12:07:45;;;;;;;;;;;29.80;59.30;;;;;;5074716;28;19947;-77
2022/05/20 12:10:29;;;;;;;;;;;29.90;60.40;;;;;;5074613;28;19942;-77
2022/05/20 12:13:09;;;;;;;;;;;29.90;60.20;;;;;;5074675;28;20347;-77
2022/05/20 12:15:35;;;;;;;;;;;30.00;61.10;;;;;;5074496;28;19909;-77
2022/05/20 12:18:20;;;;;;;;;;;30.10;60.40;;;;;;5074379;28;20274;-77
2022/05/20 12:26:41;;;;;;;;;;;30.10;58.80;;;;;;5074650;28;19947;-77
2022/05/20 12:29:26;;;;;;;;;;;30.10;58.10;;;;;;5072918;28;20347;-77
2022/05/20 12:31:51;;;;;;;;;;;30.10;58.20;;;;;;5074284;28;19908;-77
2022/05/20 12:34:36;;;;;;;;;;;30.10;59.10;;;;;;5074184;28;19904;-77
2022/05/20 12:37:01;;;;;;;;;;;30.00;58.60;;;;;;5073810;28;19938;-78
2022/05/20 12:39:45;;;;;;;;;;;29.90;57.00;;;;;;5073981;28;20343;-78
2022/05/20 12:42:30;;;;;;;;;;;29.90;58.90;;;;;;5073487;28;19905;-78
2022/05/20 12:44:56;;;;;;;;;;;30.00;58.90;;;;;;5062482;28;20003;-78
2022/05/20 12:47:29;;;;;;;;;;;30.10;57.70;;;;;;5073982;28;20437;-77
2022/05/20 12:49:59;;;;;;;;;;;30.20;56.80;;;;;;5073911;28;19958;-78
2022/05/20 12:52:31;;;;;;;;;;;30.30;57.70;;;;;;5073914;28;19905;-77
2022/05/20 12:55:12;;;;;;;;;;;30.30;57.70;;;;;;5072698;28;20011;-79
2022/05/20 12:57:46;;;;;;;;;;;30.30;57.10;;;;;;5072194;28;19908;-78
2022/05/20 13:00:12;;;;;;;;;;;30.50;56.00;;;;;;5073869;28;19978;-78
2022/05/20 13:02:39;;;;;;;;;;;30.40;56.90;;;;;;5073589;28;20002;-78
2022/05/20 13:05:23;;;;;;;;;;;30.40;56.90;;;;;;5073520;28;19919;-78
2022/05/20 13:07:51;;;;;;;;;;;30.40;57.00;;;;;;5072470;28;19904;-80
2022/05/20 13:10:23;;;;;;;;;;;30.40;58.20;;;;;;5072294;28;19911;-80
2022/05/20 13:12:50;;;;;;;;;;;30.40;58.40;;;;;;5073433;28;19978;-80
2022/05/20 13:15:19;;;;;;;;;;;30.40;58.20;;;;;;5072160;28;19911;-80
2022/05/20 13:18:01;;;;;;;;;;;30.50;58.30;;;;;;5071890;28;19909;-80
2022/05/20 13:20:28;;;;;;;;;;;30.40;57.30;;;;;;5073364;28;19930;-80
2022/05/20 13:22:57;;;;;;;;;;;30.40;56.90;;;;;;5072082;28;19912;-80
2022/05/20 13:25:23;;;;;;;;;;;30.30;56.90;;;;;;5071911;28;19912;-80
2022/05/20 13:27:48;;;;;;;;;;;30.40;59.00;;;;;;5071754;28;20473;-76
2022/05/20 13:30:17;;;;;;;;;;;30.50;58.70;;;;;;5073217;28;19908;-76
2022/05/20 13:32:42;;;;;;;;;;;30.50;57.70;;;;;;5073094;28;19905;-74
2022/05/20 13:35:08;;;;;;;;;;;30.40;58.50;;;;;;5073225;28;19951;-75
2022/05/20 13:37:38;;;;;;;;;;;30.30;58.10;;;;;;5072693;28;19920;-75
2022/05/20 13:40:22;;;;;;;;;;;30.30;58.00;;;;;;5072968;28;20368;-76
2022/05/20 13:42:49;;;;;;;;;;;30.40;57.30;;;;;;5071687;28;20370;-76
2022/05/20 13:45:15;;;;;;;;;;;30.40;57.90;;;;;;5072873;28;19916;-75
2022/05/20 13:50:26;;;;;;;;;;;30.60;58.40;;;;;;5073173;28;20256;-77
2022/05/20 13:52:53;;;;;;;;;;;30.70;57.50;;;;;;5071335;28;19904;-77
2022/05/20 13:55:19;;;;;;;;;;;30.70;56.90;;;;;;5072187;28;19900;-76
2022/05/20 13:57:46;;;;;;;;;;;30.70;56.30;;;;;;5072540;28;20355;-76
2022/05/20 14:00:20;;;;;;;;;;;30.70;58.00;;;;;;5071591;28;19905;-76
2022/05/20 14:03:03;;;;;;;;;;;30.70;57.20;;;;;;5072613;28;19908;-77
2022/05/20 14:05:30;;;;;;;;;;;30.70;57.90;;;;;;5072631;28;19999;-75
2022/05/20 14:07:58;;;;;;;;;;;30.80;57.50;;;;;;5072805;28;19908;-77
2022/05/20 14:10:24;;;;;;;;;;;30.80;57.00;;;;;;5071299;28;19904;-77
2022/05/20 14:12:57;;;;;;;;;;;30.70;56.10;;;;;;5071356;28;19904;-74
2022/05/20 14:15:41;;;;;;;;;;;30.60;57.70;;;;;;5071223;28;19936;-76
2022/05/20 14:18:16;;;;;;;;;;;30.50;57.30;;;;;;5072486;28;19909;-78
2022/05/20 14:20:44;;;;;;;;;;;30.40;57.60;;;;;;5072454;28;20308;-78
2022/05/20 14:23:13;;;;;;;;;;;30.40;56.10;;;;;;5072797;28;19904;-78
2022/05/20 14:25:57;;;;;;;;;;;30.40;55.70;;;;;;5072401;28;20236;-78
2022/05/20 14:28:35;;;;;;;;;;;30.40;56.50;;;;;;5072358;28;19909;-79
2022/05/20 14:31:02;;;;;;;;;;;30.30;56.60;;;;;;5072599;28;19912;-78
2022/05/20 14:33:30;;;;;;;;;;;30.20;57.00;;;;;;5072489;28;19912;-78
2022/05/20 14:35:56;;;;;;;;;;;30.20;56.60;;;;;;5072413;28;19911;-78
2022/05/20 14:38:24;;;;;;;;;;;30.20;56.80;;;;;;5072067;28;19916;-77
2022/05/20 14:40:51;;;;;;;;;;;30.20;58.50;;;;;;5071206;28;19904;-78
2022/05/20 14:43:21;;;;;;;;;;;30.20;58.40;;;;;;5072371;28;19946;-78
2022/05/20 14:45:55;;;;;;;;;;;30.30;58.10;;;;;;5071056;28;19913;-78
2022/05/20 14:48:27;;;;;;;;;;;30.20;57.80;;;;;;5072117;28;20267;-78
2022/05/20 14:50:53;;;;;;;;;;;30.20;57.40;;;;;;5072392;28;19908;-78
2022/05/20 14:53:26;;;;;;;;;;;30.20;57.60;;;;;;5072233;28;19904;-78
2022/05/20 14:55:53;;;;;;;;;;;30.20;58.20;;;;;;5072199;28;19944;-78
2022/05/20 14:58:22;;;;;;;;;;;30.00;57.70;;;;;;5072089;28;20355;-78
2022/05/20 15:00:54;;;;;;;;;;;29.80;57.80;;;;;;5072218;28;19909;-80
2022/05/20 15:03:21;;;;;;;;;;;29.80;67.80;;;;;;5070873;28;19957;-77
2022/05/20 15:05:48;;;;;;;;;;;29.70;59.00;;;;;;5073882;28;19963;-78